sensor_id;sensor_type;location;lat;lon;timestamp;P1;durP1;ratioP1;P2;durP2;ratioP2
17504;SDS011;8870;50.950;11.762;2024-01-15T00:04:29;4.68;;;3.63;;
17504;SDS011;8870;50.950;11.762;2024-01-15T00:09:49;7.25;;;4.78;;
17504;SDS011;8870;50.950;11.762;2024-01-15T00:15:23;5.93;;;4.45;;
17504;SDS011;8870;50.950;11.762;2024-01-15T00:20:55;5.38;;;4.18;;
17504;SDS011;8870;50.950;11.762;2024-01-15T00:26:14;6.57;;;4.32;;
17504;SDS011;8870;50.950;11.762;2024-01-15T00:31:47;7.57;;;4.80;;
17504;SDS011;8870;50.950;11.762;2024-01-15T00:37:05;5.18;;;4.00;;
17504;SDS011;8870;50.950;11.762;2024-01-15T00:42:37;5.72;;;4.25;;
17504;SDS011;8870;50.950;11.762;2024-01-15T00:47:57;5.47;;;4.38;;
17504;SDS011;8870;50.950;11.762;2024-01-15T00:53:28;7.05;;;5.07;;
17504;SDS011;8870;50.950;11.762;2024-01-15T00:58:47;6.47;;;4.63;;
17504;SDS011;8870;50.950;11.762;2024-01-15T01:04:21;7.40;;;5.50;;
17504;SDS011;8870;50.950;11.762;2024-01-15T01:09:40;7.05;;;5.35;;
17504;SDS011;8870;50.950;11.762;2024-01-15T01:15:12;7.50;;;5.18;;
17504;SDS011;8870;50.950;11.762;2024-01-15T01:20:46;7.70;;;4.90;;
17504;SDS011;8870;50.950;11.762;2024-01-15T01:26:04;8.38;;;5.93;;
17504;SDS011;8870;50.950;11.762;2024-01-15T01:31:42;7.10;;;5.15;;
17504;SDS011;8870;50.950;11.762;2024-01-15T01:37:03;7.70;;;5.53;;
17504;SDS011;8870;50.950;11.762;2024-01-15T01:42:35;8.25;;;6.15;;
17504;SDS011;8870;50.950;11.762;2024-01-15T01:47:54;8.98;;;6.55;;
17504;SDS011;8870;50.950;11.762;2024-01-15T01:53:27;8.52;;;5.78;;
17504;SDS011;8870;50.950;11.762;2024-01-15T01:58:47;9.05;;;5.80;;
17504;SDS011;8870;50.950;11.762;2024-01-15T02:04:18;9.25;;;6.43;;
17504;SDS011;8870;50.950;11.762;2024-01-15T02:09:39;9.10;;;6.05;;
17504;SDS011;8870;50.950;11.762;2024-01-15T02:15:11;8.68;;;6.07;;
17504;SDS011;8870;50.950;11.762;2024-01-15T02:20:31;8.18;;;6.05;;
17504;SDS011;8870;50.950;11.762;2024-01-15T02:26:05;9.50;;;6.50;;
17504;SDS011;8870;50.950;11.762;2024-01-15T02:31:25;7.65;;;5.85;;
17504;SDS011;8870;50.950;11.762;2024-01-15T02:36:55;7.13;;;5.80;;
17504;SDS011;8870;50.950;11.762;2024-01-15T02:42:16;8.13;;;6.00;;
17504;SDS011;8870;50.950;11.762;2024-01-15T02:47:47;7.72;;;6.18;;
17504;SDS011;8870;50.950;11.762;2024-01-15T02:53:06;9.65;;;6.78;;
17504;SDS011;8870;50.950;11.762;2024-01-15T02:58:39;9.15;;;6.30;;
17504;SDS011;8870;50.950;11.762;2024-01-15T03:03:58;8.57;;;5.97;;
17504;SDS011;8870;50.950;11.762;2024-01-15T03:09:28;8.93;;;6.80;;
17504;SDS011;8870;50.950;11.762;2024-01-15T03:14:56;8.60;;;6.45;;
17504;SDS011;8870;50.950;11.762;2024-01-15T03:20:28;10.15;;;6.93;;
17504;SDS011;8870;50.950;11.762;2024-01-15T03:25:46;10.20;;;6.93;;
17504;SDS011;8870;50.950;11.762;2024-01-15T03:31:19;9.75;;;6.93;;
17504;SDS011;8870;50.950;11.762;2024-01-15T03:36:38;9.32;;;6.47;;
17504;SDS011;8870;50.950;11.762;2024-01-15T03:42:08;10.02;;;6.60;;
17504;SDS011;8870;50.950;11.762;2024-01-15T03:47:29;9.30;;;4.93;;
17504;SDS011;8870;50.950;11.762;2024-01-15T03:53:02;4.10;;;3.25;;
17504;SDS011;8870;50.950;11.762;2024-01-15T03:58:21;9.20;;;5.90;;
17504;SDS011;8870;50.950;11.762;2024-01-15T04:03:54;8.50;;;5.85;;
17504;SDS011;8870;50.950;11.762;2024-01-15T04:09:13;6.38;;;4.57;;
17504;SDS011;8870;50.950;11.762;2024-01-15T04:14:44;3.95;;;2.90;;
17504;SDS011;8870;50.950;11.762;2024-01-15T04:20:06;4.00;;;3.15;;
17504;SDS011;8870;50.950;11.762;2024-01-15T04:25:39;4.25;;;3.20;;
17504;SDS011;8870;50.950;11.762;2024-01-15T04:30:58;4.35;;;3.25;;
17504;SDS011;8870;50.950;11.762;2024-01-15T04:36:31;5.85;;;3.10;;
17504;SDS011;8870;50.950;11.762;2024-01-15T04:41:50;4.72;;;3.30;;
17504;SDS011;8870;50.950;11.762;2024-01-15T04:47:21;5.05;;;3.10;;
17504;SDS011;8870;50.950;11.762;2024-01-15T04:52:42;3.38;;;2.83;;
17504;SDS011;8870;50.950;11.762;2024-01-15T04:58:13;4.40;;;3.00;;
17504;SDS011;8870;50.950;11.762;2024-01-15T05:03:32;4.45;;;2.75;;
17504;SDS011;8870;50.950;11.762;2024-01-15T05:09:05;4.07;;;2.85;;
17504;SDS011;8870;50.950;11.762;2024-01-15T05:14:30;3.83;;;2.58;;
17504;SDS011;8870;50.950;11.762;2024-01-15T05:20:02;3.67;;;2.95;;
17504;SDS011;8870;50.950;11.762;2024-01-15T05:25:23;3.28;;;2.60;;
17504;SDS011;8870;50.950;11.762;2024-01-15T05:30:54;5.47;;;3.15;;
17504;SDS011;8870;50.950;11.762;2024-01-15T05:36:13;3.20;;;2.72;;
17504;SDS011;8870;50.950;11.762;2024-01-15T05:41:47;3.38;;;2.45;;
17504;SDS011;8870;50.950;11.762;2024-01-15T05:47:06;3.92;;;2.38;;
17504;SDS011;8870;50.950;11.762;2024-01-15T05:52:36;3.38;;;2.53;;
17504;SDS011;8870;50.950;11.762;2024-01-15T05:57:57;3.90;;;2.92;;
17504;SDS011;8870;50.950;11.762;2024-01-15T06:03:28;4.40;;;2.83;;
17504;SDS011;8870;50.950;11.762;2024-01-15T06:08:47;3.70;;;2.67;;
17504;SDS011;8870;50.950;11.762;2024-01-15T06:14:23;3.72;;;2.40;;
17504;SDS011;8870;50.950;11.762;2024-01-15T06:19:42;3.92;;;2.70;;
17504;SDS011;8870;50.950;11.762;2024-01-15T06:25:12;2.75;;;2.38;;
17504;SDS011;8870;50.950;11.762;2024-01-15T06:30:33;3.47;;;2.30;;
17504;SDS011;8870;50.950;11.762;2024-01-15T06:36:05;4.97;;;2.70;;
17504;SDS011;8870;50.950;11.762;2024-01-15T06:41:25;4.60;;;3.00;;
17504;SDS011;8870;50.950;11.762;2024-01-15T06:46:59;3.97;;;2.75;;
17504;SDS011;8870;50.950;11.762;2024-01-15T06:52:18;4.05;;;2.50;;
17504;SDS011;8870;50.950;11.762;2024-01-15T06:57:48;4.00;;;2.65;;
17504;SDS011;8870;50.950;11.762;2024-01-15T07:03:10;5.47;;;2.90;;
17504;SDS011;8870;50.950;11.762;2024-01-15T07:08:42;4.78;;;2.70;;
17504;SDS011;8870;50.950;11.762;2024-01-15T07:14:06;5.03;;;3.08;;
17504;SDS011;8870;50.950;11.762;2024-01-15T07:19:40;5.50;;;3.10;;
17504;SDS011;8870;50.950;11.762;2024-01-15T07:24:59;5.43;;;3.38;;
17504;SDS011;8870;50.950;11.762;2024-01-15T07:30:29;4.97;;;3.58;;
17504;SDS011;8870;50.950;11.762;2024-01-15T07:35:50;4.10;;;2.78;;
17504;SDS011;8870;50.950;11.762;2024-01-15T07:41:22;8.77;;;3.70;;
17504;SDS011;8870;50.950;11.762;2024-01-15T07:46:43;5.88;;;3.78;;
17504;SDS011;8870;50.950;11.762;2024-01-15T07:52:17;5.25;;;3.75;;
17504;SDS011;8870;50.950;11.762;2024-01-15T07:57:36;5.18;;;3.45;;
17504;SDS011;8870;50.950;11.762;2024-01-15T08:03:19;4.90;;;3.60;;
17504;SDS011;8870;50.950;11.762;2024-01-15T08:08:40;5.07;;;3.67;;
17504;SDS011;8870;50.950;11.762;2024-01-15T08:14:11;4.15;;;3.13;;
17504;SDS011;8870;50.950;11.762;2024-01-15T08:19:30;5.78;;;3.22;;
17504;SDS011;8870;50.950;11.762;2024-01-15T08:25:05;4.22;;;2.63;;
17504;SDS011;8870;50.950;11.762;2024-01-15T08:30:24;3.58;;;2.50;;
17504;SDS011;8870;50.950;11.762;2024-01-15T08:35:56;4.53;;;2.70;;
17504;SDS011;8870;50.950;11.762;2024-01-15T08:41:16;7.63;;;2.83;;
17504;SDS011;8870;50.950;11.762;2024-01-15T08:46:48;4.53;;;2.40;;
17504;SDS011;8870;50.950;11.762;2024-01-15T08:52:06;4.93;;;2.50;;
17504;SDS011;8870;50.950;11.762;2024-01-15T08:57:40;3.28;;;2.40;;
17504;SDS011;8870;50.950;11.762;2024-01-15T09:02:59;3.05;;;2.08;;
17504;SDS011;8870;50.950;11.762;2024-01-15T09:08:30;3.80;;;2.40;;
17504;SDS011;8870;50.950;11.762;2024-01-15T09:13:59;4.80;;;2.60;;
17504;SDS011;8870;50.950;11.762;2024-01-15T09:19:32;4.75;;;2.72;;
17504;SDS011;8870;50.950;11.762;2024-01-15T09:24:51;5.22;;;2.00;;
17504;SDS011;8870;50.950;11.762;2024-01-15T09:30:25;3.50;;;2.47;;
17504;SDS011;8870;50.950;11.762;2024-01-15T09:35:44;4.57;;;2.28;;
17504;SDS011;8870;50.950;11.762;2024-01-15T09:41:15;3.63;;;2.30;;
17504;SDS011;8870;50.950;11.762;2024-01-15T09:46:35;4.60;;;2.45;;
17504;SDS011;8870;50.950;11.762;2024-01-15T09:52:07;4.70;;;3.00;;
17504;SDS011;8870;50.950;11.762;2024-01-15T09:57:26;4.65;;;2.80;;
17504;SDS011;8870;50.950;11.762;2024-01-15T10:03:00;3.50;;;2.30;;
17504;SDS011;8870;50.950;11.762;2024-01-15T10:08:21;3.85;;;2.47;;
17504;SDS011;8870;50.950;11.762;2024-01-15T10:13:54;3.50;;;2.30;;
17504;SDS011;8870;50.950;11.762;2024-01-15T10:19:28;4.43;;;2.67;;
17504;SDS011;8870;50.950;11.762;2024-01-15T10:24:52;4.90;;;2.45;;
17504;SDS011;8870;50.950;11.762;2024-01-15T10:30:23;3.25;;;2.35;;
17504;SDS011;8870;50.950;11.762;2024-01-15T10:35:44;5.32;;;2.85;;
17504;SDS011;8870;50.950;11.762;2024-01-15T10:41:16;3.45;;;2.40;;
17504;SDS011;8870;50.950;11.762;2024-01-15T10:46:34;3.28;;;2.45;;
17504;SDS011;8870;50.950;11.762;2024-01-15T10:52:09;6.78;;;3.05;;
17504;SDS011;8870;50.950;11.762;2024-01-15T10:57:28;5.35;;;2.80;;
17504;SDS011;8870;50.950;11.762;2024-01-15T11:03:00;3.50;;;2.60;;
17504;SDS011;8870;50.950;11.762;2024-01-15T11:08:23;4.03;;;2.65;;
17504;SDS011;8870;50.950;11.762;2024-01-15T11:13:56;3.65;;;2.30;;
17504;SDS011;8870;50.950;11.762;2024-01-15T11:19:35;4.05;;;2.40;;
17504;SDS011;8870;50.950;11.762;2024-01-15T11:24:57;6.03;;;2.55;;
17504;SDS011;8870;50.950;11.762;2024-01-15T11:30:33;4.65;;;2.40;;
17504;SDS011;8870;50.950;11.762;2024-01-15T11:35:52;2.90;;;2.17;;
17504;SDS011;8870;50.950;11.762;2024-01-15T11:41:25;4.07;;;2.15;;
17504;SDS011;8870;50.950;11.762;2024-01-15T11:46:45;3.58;;;2.15;;
17504;SDS011;8870;50.950;11.762;2024-01-15T11:52:32;2.78;;;1.92;;
17504;SDS011;8870;50.950;11.762;2024-01-15T11:57:54;5.30;;;2.10;;
17504;SDS011;8870;50.950;11.762;2024-01-15T12:03:26;3.50;;;2.10;;
17504;SDS011;8870;50.950;11.762;2024-01-15T12:08:44;2.50;;;1.63;;
17504;SDS011;8870;50.950;11.762;2024-01-15T12:14:17;2.47;;;1.60;;
17504;SDS011;8870;50.950;11.762;2024-01-15T12:19:36;2.72;;;1.80;;
17504;SDS011;8870;50.950;11.762;2024-01-15T12:25:08;3.58;;;1.55;;
17504;SDS011;8870;50.950;11.762;2024-01-15T12:30:29;2.67;;;1.50;;
17504;SDS011;8870;50.950;11.762;2024-01-15T12:36:02;1.95;;;1.45;;
17504;SDS011;8870;50.950;11.762;2024-01-15T12:41:22;1.70;;;1.55;;
17504;SDS011;8870;50.950;11.762;2024-01-15T12:46:56;2.25;;;1.55;;
17504;SDS011;8870;50.950;11.762;2024-01-15T12:52:15;2.17;;;1.67;;
17504;SDS011;8870;50.950;11.762;2024-01-15T12:57:46;4.75;;;1.77;;
17504;SDS011;8870;50.950;11.762;2024-01-15T13:03:06;1.88;;;1.50;;
17504;SDS011;8870;50.950;11.762;2024-01-15T13:08:39;3.08;;;1.50;;
17504;SDS011;8870;50.950;11.762;2024-01-15T13:13:57;2.22;;;1.70;;
17504;SDS011;8870;50.950;11.762;2024-01-15T13:19:30;2.47;;;1.77;;
17504;SDS011;8870;50.950;11.762;2024-01-15T13:24:49;2.72;;;1.70;;
17504;SDS011;8870;50.950;11.762;2024-01-15T13:30:20;2.05;;;1.55;;
17504;SDS011;8870;50.950;11.762;2024-01-15T13:35:40;3.63;;;1.65;;
17504;SDS011;8870;50.950;11.762;2024-01-15T13:41:13;2.05;;;1.60;;
17504;SDS011;8870;50.950;11.762;2024-01-15T13:46:33;3.35;;;1.83;;
17504;SDS011;8870;50.950;11.762;2024-01-15T13:52:06;2.53;;;1.63;;
17504;SDS011;8870;50.950;11.762;2024-01-15T13:57:25;3.17;;;1.67;;
17504;SDS011;8870;50.950;11.762;2024-01-15T14:02:57;3.83;;;2.10;;
17504;SDS011;8870;50.950;11.762;2024-01-15T14:08:17;4.05;;;1.77;;
17504;SDS011;8870;50.950;11.762;2024-01-15T14:13:50;2.83;;;1.90;;
17504;SDS011;8870;50.950;11.762;2024-01-15T14:19:21;2.17;;;1.80;;
17504;SDS011;8870;50.950;11.762;2024-01-15T14:24:42;2.65;;;1.77;;
17504;SDS011;8870;50.950;11.762;2024-01-15T14:30:14;3.08;;;2.00;;
17504;SDS011;8870;50.950;11.762;2024-01-15T14:35:33;2.28;;;1.73;;
17504;SDS011;8870;50.950;11.762;2024-01-15T14:41:06;2.40;;;1.98;;
17504;SDS011;8870;50.950;11.762;2024-01-15T14:46:25;2.05;;;1.85;;
17504;SDS011;8870;50.950;11.762;2024-01-15T14:51:56;2.67;;;2.00;;
17504;SDS011;8870;50.950;11.762;2024-01-15T14:57:16;2.25;;;1.88;;
17504;SDS011;8870;50.950;11.762;2024-01-15T15:02:48;3.22;;;1.98;;
17504;SDS011;8870;50.950;11.762;2024-01-15T15:08:06;3.15;;;2.13;;
17504;SDS011;8870;50.950;11.762;2024-01-15T15:13:39;2.80;;;2.20;;
17504;SDS011;8870;50.950;11.762;2024-01-15T15:18:58;3.13;;;2.40;;
17504;SDS011;8870;50.950;11.762;2024-01-15T15:24:29;2.95;;;2.20;;
17504;SDS011;8870;50.950;11.762;2024-01-15T15:29:50;2.92;;;2.38;;
17504;SDS011;8870;50.950;11.762;2024-01-15T15:35:22;3.70;;;2.25;;
17504;SDS011;8870;50.950;11.762;2024-01-15T15:40:40;3.05;;;2.20;;
17504;SDS011;8870;50.950;11.762;2024-01-15T15:46:13;3.05;;;2.05;;
17504;SDS011;8870;50.950;11.762;2024-01-15T15:51:32;4.40;;;2.40;;
17504;SDS011;8870;50.950;11.762;2024-01-15T15:57:04;4.03;;;2.47;;
17504;SDS011;8870;50.950;11.762;2024-01-15T16:02:24;3.72;;;2.13;;
17504;SDS011;8870;50.950;11.762;2024-01-15T16:07:56;3.67;;;2.10;;
17504;SDS011;8870;50.950;11.762;2024-01-15T16:13:16;3.28;;;2.10;;
17504;SDS011;8870;50.950;11.762;2024-01-15T16:18:49;3.70;;;2.20;;
17504;SDS011;8870;50.950;11.762;2024-01-15T16:24:28;2.70;;;2.00;;
17504;SDS011;8870;50.950;11.762;2024-01-15T16:30:07;2.45;;;1.85;;
17504;SDS011;8870;50.950;11.762;2024-01-15T16:35:42;3.15;;;2.10;;
17504;SDS011;8870;50.950;11.762;2024-01-15T16:41:14;2.90;;;1.83;;
17504;SDS011;8870;50.950;11.762;2024-01-15T16:46:32;3.30;;;1.95;;
17504;SDS011;8870;50.950;11.762;2024-01-15T16:52:06;2.45;;;1.70;;
17504;SDS011;8870;50.950;11.762;2024-01-15T16:57:25;1.88;;;1.50;;
17504;SDS011;8870;50.950;11.762;2024-01-15T17:02:56;4.20;;;1.80;;
17504;SDS011;8870;50.950;11.762;2024-01-15T17:08:17;2.38;;;1.30;;
17504;SDS011;8870;50.950;11.762;2024-01-15T17:13:49;2.10;;;1.45;;
17504;SDS011;8870;50.950;11.762;2024-01-15T17:19:07;2.95;;;1.50;;
17504;SDS011;8870;50.950;11.762;2024-01-15T17:24:40;2.35;;;1.40;;
17504;SDS011;8870;50.950;11.762;2024-01-15T17:29:59;1.25;;;1.13;;
17504;SDS011;8870;50.950;11.762;2024-01-15T17:35:31;2.13;;;1.40;;
17504;SDS011;8870;50.950;11.762;2024-01-15T17:40:52;2.45;;;1.30;;
17504;SDS011;8870;50.950;11.762;2024-01-15T17:46:23;1.50;;;1.20;;
17504;SDS011;8870;50.950;11.762;2024-01-15T17:51:41;2.13;;;1.40;;
17504;SDS011;8870;50.950;11.762;2024-01-15T17:57:16;2.58;;;1.30;;
17504;SDS011;8870;50.950;11.762;2024-01-15T18:02:35;2.35;;;1.40;;
17504;SDS011;8870;50.950;11.762;2024-01-15T18:08:07;1.48;;;1.27;;
17504;SDS011;8870;50.950;11.762;2024-01-15T18:13:29;1.50;;;1.10;;
17504;SDS011;8870;50.950;11.762;2024-01-15T18:19:00;2.00;;;1.08;;
17504;SDS011;8870;50.950;11.762;2024-01-15T18:24:18;1.58;;;0.90;;
17504;SDS011;8870;50.950;11.762;2024-01-15T18:29:51;1.45;;;1.00;;
17504;SDS011;8870;50.950;11.762;2024-01-15T18:35:11;0.93;;;0.90;;
17504;SDS011;8870;50.950;11.762;2024-01-15T18:40:43;1.50;;;0.95;;
17504;SDS011;8870;50.950;11.762;2024-01-15T18:46:06;1.55;;;0.90;;
17504;SDS011;8870;50.950;11.762;2024-01-15T18:51:37;1.15;;;0.80;;
17504;SDS011;8870;50.950;11.762;2024-01-15T18:57:00;1.40;;;0.80;;
17504;SDS011;8870;50.950;11.762;2024-01-15T19:02:33;1.20;;;0.82;;
17504;SDS011;8870;50.950;11.762;2024-01-15T19:07:52;1.40;;;0.82;;
17504;SDS011;8870;50.950;11.762;2024-01-15T19:13:24;2.42;;;1.00;;
17504;SDS011;8870;50.950;11.762;2024-01-15T19:18:51;1.65;;;1.00;;
17504;SDS011;8870;50.950;11.762;2024-01-15T19:24:25;2.30;;;0.90;;
17504;SDS011;8870;50.950;11.762;2024-01-15T19:29:43;0.75;;;0.75;;
17504;SDS011;8870;50.950;11.762;2024-01-15T19:35:17;2.95;;;0.90;;
17504;SDS011;8870;50.950;11.762;2024-01-15T19:40:36;0.75;;;0.65;;
17504;SDS011;8870;50.950;11.762;2024-01-15T19:46:08;1.17;;;0.70;;
17504;SDS011;8870;50.950;11.762;2024-01-15T19:51:28;2.63;;;0.80;;
17504;SDS011;8870;50.950;11.762;2024-01-15T19:57:02;2.75;;;0.95;;
17504;SDS011;8870;50.950;11.762;2024-01-15T20:02:21;2.15;;;0.90;;
17504;SDS011;8870;50.950;11.762;2024-01-15T20:07:56;1.40;;;0.80;;
17504;SDS011;8870;50.950;11.762;2024-01-15T20:13:18;1.65;;;0.80;;
17504;SDS011;8870;50.950;11.762;2024-01-15T20:18:49;1.25;;;0.80;;
17504;SDS011;8870;50.950;11.762;2024-01-15T20:24:22;2.17;;;1.10;;
17504;SDS011;8870;50.950;11.762;2024-01-15T20:29:41;2.30;;;1.10;;
17504;SDS011;8870;50.950;11.762;2024-01-15T20:35:12;1.17;;;1.00;;
17504;SDS011;8870;50.950;11.762;2024-01-15T20:40:34;2.15;;;1.05;;
17504;SDS011;8870;50.950;11.762;2024-01-15T20:46:06;2.15;;;1.00;;
17504;SDS011;8870;50.950;11.762;2024-01-15T20:51:24;2.78;;;1.00;;
17504;SDS011;8870;50.950;11.762;2024-01-15T20:56:57;3.75;;;1.30;;
17504;SDS011;8870;50.950;11.762;2024-01-15T21:02:19;1.73;;;0.82;;
17504;SDS011;8870;50.950;11.762;2024-01-15T21:07:50;2.22;;;1.02;;
17504;SDS011;8870;50.950;11.762;2024-01-15T21:13:12;3.25;;;1.25;;
17504;SDS011;8870;50.950;11.762;2024-01-15T21:18:43;5.18;;;1.38;;
17504;SDS011;8870;50.950;11.762;2024-01-15T21:24:14;5.78;;;1.30;;
17504;SDS011;8870;50.950;11.762;2024-01-15T21:29:38;3.20;;;1.02;;
17504;SDS011;8870;50.950;11.762;2024-01-15T21:35:09;1.90;;;1.00;;
17504;SDS011;8870;50.950;11.762;2024-01-15T21:40:28;3.42;;;1.08;;
17504;SDS011;8870;50.950;11.762;2024-01-15T21:46:01;2.15;;;1.00;;
17504;SDS011;8870;50.950;11.762;2024-01-15T21:51:20;2.95;;;1.13;;
17504;SDS011;8870;50.950;11.762;2024-01-15T21:56:51;2.78;;;1.00;;
17504;SDS011;8870;50.950;11.762;2024-01-15T22:02:12;3.03;;;1.00;;
17504;SDS011;8870;50.950;11.762;2024-01-15T22:07:44;3.22;;;1.00;;
17504;SDS011;8870;50.950;11.762;2024-01-15T22:13:03;2.47;;;0.90;;
17504;SDS011;8870;50.950;11.762;2024-01-15T22:18:37;4.85;;;1.20;;
17504;SDS011;8870;50.950;11.762;2024-01-15T22:23:56;2.95;;;1.10;;
17504;SDS011;8870;50.950;11.762;2024-01-15T22:29:27;3.75;;;1.20;;
17504;SDS011;8870;50.950;11.762;2024-01-15T22:34:48;4.47;;;1.00;;
17504;SDS011;8870;50.950;11.762;2024-01-15T22:40:19;3.83;;;1.10;;
17504;SDS011;8870;50.950;11.762;2024-01-15T22:45:37;2.53;;;0.98;;
17504;SDS011;8870;50.950;11.762;2024-01-15T22:51:10;2.13;;;0.85;;
17504;SDS011;8870;50.950;11.762;2024-01-15T22:56:29;5.40;;;1.10;;
17504;SDS011;8870;50.950;11.762;2024-01-15T23:02:00;3.92;;;1.10;;
17504;SDS011;8870;50.950;11.762;2024-01-15T23:07:21;3.00;;;1.20;;
17504;SDS011;8870;50.950;11.762;2024-01-15T23:12:52;1.48;;;0.77;;
17504;SDS011;8870;50.950;11.762;2024-01-15T23:18:17;2.60;;;0.90;;
17504;SDS011;8870;50.950;11.762;2024-01-15T23:23:50;1.92;;;0.90;;
17504;SDS011;8870;50.950;11.762;2024-01-15T23:29:09;1.27;;;0.60;;
17504;SDS011;8870;50.950;11.762;2024-01-15T23:34:40;2.35;;;0.70;;
17504;SDS011;8870;50.950;11.762;2024-01-15T23:40:01;2.95;;;0.80;;
17504;SDS011;8870;50.950;11.762;2024-01-15T23:45:34;1.58;;;0.80;;
17504;SDS011;8870;50.950;11.762;2024-01-15T23:50:54;1.75;;;0.80;;
17504;SDS011;8870;50.950;11.762;2024-01-15T23:56:28;3.65;;;0.82;;
